PWSweather.com
Personal Weather Stations
Station Observations
MADWEATHER
MadeiraPT

MadeiraPT

Lat: 32.735, Lon: -17.194

Elevation: 1063

Station Type: Davis VantagePro2

www.mad-weather.com

High Low Average
Temperature 73.1°F22.8°C 64.2°F17.9°C 68.6°F20.3°C
Dew Point 65.1°F18.4°C 57.5°F14.2°C 62.8°F17.1°C
Winds 6.3 mph 10.1 kmh Calm Calm 2.0 mph S3.2 kmh S
Wind Gusts 10.0 mph16.1 kmh -- 4.0 mph6.4 kmh
Humidity 91% 71% 82%
Pressure 30.17 in1021.7 mb 30.11 in1019.6 mb -
Precipitation 0.00 in0.0 mm - -
Hour Temp Dew Point Humidity Winds Wind Gusts Pressure Precip Precip Rate Daily Precip Total
12:00 AM 66.8°F19.3°C 63.8°F17.7°C 90% Calm Calm -- 30.15 in1021.0 mb - 0.00 in0.0 mm 0.00 in0.0 mm
12:10 AM 66.8°F19.3°C 63.8°F17.7°C 90% Calm Calm -- 30.15 in1021.0 mb - 0.00 in0.0 mm 0.00 in0.0 mm
12:20 AM 66.8°F19.3°C 63.8°F17.7°C 90% Calm Calm -- 30.14 in1020.7 mb - 0.00 in0.0 mm 0.00 in0.0 mm
12:30 AM 66.8°F19.3°C 63.8°F17.7°C 90% Calm Calm -- 30.14 in1020.7 mb - 0.00 in0.0 mm 0.00 in0.0 mm
12:40 AM 66.9°F19.4°C 64.2°F17.9°C 91% Calm Calm -- 30.15 in1021.0 mb - 0.00 in0.0 mm 0.00 in0.0 mm
12:50 AM 66.8°F19.3°C 64.1°F17.8°C 91% Calm Calm -- 30.14 in1020.7 mb - 0.00 in0.0 mm 0.00 in0.0 mm
01:00 AM 66.8°F19.3°C 64.1°F17.8°C 91% Calm Calm -- 30.14 in1020.7 mb - 0.00 in0.0 mm 0.00 in0.0 mm
01:10 AM 66.7°F19.3°C 64.0°F17.8°C 91% Calm Calm -- 30.14 in1020.7 mb - 0.00 in0.0 mm 0.00 in0.0 mm
01:20 AM 66.5°F19.2°C 63.8°F17.7°C 91% Calm Calm -- 30.14 in1020.7 mb - 0.00 in0.0 mm 0.00 in0.0 mm
01:30 AM 66.4°F19.1°C 63.7°F17.6°C 91% Calm Calm -- 30.14 in1020.7 mb - 0.00 in0.0 mm 0.00 in0.0 mm
01:40 AM 66.3°F19.1°C 63.6°F17.6°C 91% Calm Calm 1.0 mph1.6 kmh 30.14 in1020.7 mb - 0.00 in0.0 mm 0.00 in0.0 mm
01:50 AM 66.0°F18.9°C 63.3°F17.4°C 91% 1.4 mph S2.3 kmh S 2.0 mph3.2 kmh 30.13 in1020.3 mb - 0.00 in0.0 mm 0.00 in0.0 mm
02:00 AM 66.0°F18.9°C 63.3°F17.4°C 91% 1.4 mph S2.3 kmh S 3.0 mph4.8 kmh 30.13 in1020.3 mb - 0.00 in0.0 mm 0.00 in0.0 mm
02:10 AM 66.1°F18.9°C 63.4°F17.4°C 91% 1.6 mph S2.6 kmh S 3.0 mph4.8 kmh 30.13 in1020.3 mb - 0.00 in0.0 mm 0.00 in0.0 mm
02:20 AM 66.1°F18.9°C 63.4°F17.4°C 91% Calm Calm -- 30.13 in1020.3 mb - 0.00 in0.0 mm 0.00 in0.0 mm
02:30 AM 66.0°F18.9°C 63.3°F17.4°C 91% 0.6 mph S1.0 kmh S 2.0 mph3.2 kmh 30.13 in1020.3 mb - 0.00 in0.0 mm 0.00 in0.0 mm
02:40 AM 66.1°F18.9°C 63.1°F17.3°C 90% 0.3 mph S0.5 kmh S 3.0 mph4.8 kmh 30.13 in1020.3 mb - 0.00 in0.0 mm 0.00 in0.0 mm
02:50 AM 66.2°F19.0°C 63.2°F17.3°C 90% 0.3 mph S0.5 kmh S 1.0 mph1.6 kmh 30.13 in1020.3 mb - 0.00 in0.0 mm 0.00 in0.0 mm
03:00 AM 66.1°F18.9°C 63.1°F17.3°C 90% Calm Calm -- 30.12 in1020.0 mb - 0.00 in0.0 mm 0.00 in0.0 mm
03:10 AM 66.0°F18.9°C 62.7°F17.1°C 89% Calm Calm -- 30.12 in1020.0 mb - 0.00 in0.0 mm 0.00 in0.0 mm
03:20 AM 65.8°F18.8°C 62.5°F16.9°C 89% Calm Calm 2.0 mph3.2 kmh 30.12 in1020.0 mb - 0.00 in0.0 mm 0.00 in0.0 mm
03:30 AM 65.5°F18.6°C 62.2°F16.8°C 89% Calm Calm -- 30.12 in1020.0 mb - 0.00 in0.0 mm 0.00 in0.0 mm
03:40 AM 65.6°F18.7°C 62.3°F16.8°C 89% Calm Calm -- 30.12 in1020.0 mb - 0.00 in0.0 mm 0.00 in0.0 mm
03:50 AM 65.5°F18.6°C 61.9°F16.6°C 88% Calm Calm -- 30.12 in1020.0 mb - 0.00 in0.0 mm 0.00 in0.0 mm
04:00 AM 65.3°F18.5°C 61.7°F16.5°C 88% Calm Calm -- 30.12 in1020.0 mb - 0.00 in0.0 mm 0.00 in0.0 mm
04:10 AM 65.2°F18.4°C 61.6°F16.4°C 88% Calm Calm -- 30.12 in1020.0 mb - 0.00 in0.0 mm 0.00 in0.0 mm
04:20 AM 65.2°F18.4°C 61.6°F16.4°C 88% Calm Calm -- 30.12 in1020.0 mb - 0.00 in0.0 mm 0.00 in0.0 mm
04:30 AM 65.1°F18.4°C 61.7°F16.5°C 89% Calm Calm -- 30.12 in1020.0 mb - 0.00 in0.0 mm 0.00 in0.0 mm
04:40 AM 65.1°F18.4°C 61.8°F16.6°C 89% Calm Calm -- 30.12 in1020.0 mb - 0.00 in0.0 mm 0.00 in0.0 mm
04:50 AM 65.0°F18.3°C 61.7°F16.5°C 89% Calm Calm -- 30.11 in1019.6 mb - 0.00 in0.0 mm 0.00 in0.0 mm
05:00 AM 64.8°F18.2°C 61.4°F16.3°C 89% Calm Calm -- 30.11 in1019.6 mb - 0.00 in0.0 mm 0.00 in0.0 mm
05:10 AM 64.5°F18.1°C 61.2°F16.2°C 89% Calm Calm -- 30.12 in1020.0 mb - 0.00 in0.0 mm 0.00 in0.0 mm
05:20 AM 64.5°F18.1°C 61.2°F16.2°C 89% Calm Calm -- 30.12 in1020.0 mb - 0.00 in0.0 mm 0.00 in0.0 mm
05:30 AM 64.7°F18.2°C 61.7°F16.5°C 90% Calm Calm -- 30.12 in1020.0 mb - 0.00 in0.0 mm 0.00 in0.0 mm
05:40 AM 64.5°F18.1°C 61.5°F16.4°C 90% Calm Calm -- 30.12 in1020.0 mb - 0.00 in0.0 mm 0.00 in0.0 mm
05:50 AM 64.5°F18.1°C 61.5°F16.4°C 90% Calm Calm -- 30.12 in1020.0 mb - 0.00 in0.0 mm 0.00 in0.0 mm
06:00 AM 64.9°F18.3°C 62.2°F16.8°C 91% Calm Calm -- 30.13 in1020.3 mb - 0.00 in0.0 mm 0.00 in0.0 mm
06:10 AM 64.7°F18.2°C 61.7°F16.5°C 90% Calm Calm -- 30.13 in1020.3 mb - 0.00 in0.0 mm 0.00 in0.0 mm
06:20 AM 64.7°F18.2°C 61.7°F16.5°C 90% Calm Calm -- 30.13 in1020.3 mb - 0.00 in0.0 mm 0.00 in0.0 mm
06:30 AM 64.2°F17.9°C 60.6°F15.9°C 88% Calm Calm -- 30.13 in1020.3 mb - 0.00 in0.0 mm 0.00 in0.0 mm
06:40 AM 64.4°F18.0°C 60.1°F15.6°C 86% Calm Calm -- 30.14 in1020.7 mb - 0.00 in0.0 mm 0.00 in0.0 mm
06:50 AM 64.7°F18.2°C 60.5°F15.8°C 86% Calm Calm -- 30.14 in1020.7 mb - 0.00 in0.0 mm 0.00 in0.0 mm
07:00 AM 64.8°F18.2°C 59.8°F15.4°C 84% Calm Calm -- 30.14 in1020.7 mb - 0.00 in0.0 mm 0.00 in0.0 mm
07:10 AM 64.8°F18.2°C 58.5°F14.7°C 80% Calm Calm -- 30.14 in1020.7 mb - 0.00 in0.0 mm 0.00 in0.0 mm
07:20 AM 65.7°F18.7°C 58.7°F14.8°C 78% Calm Calm -- 30.14 in1020.7 mb - 0.00 in0.0 mm 0.00 in0.0 mm
07:30 AM 67.0°F19.4°C 58.4°F14.7°C 74% Calm Calm -- 30.14 in1020.7 mb - 0.00 in0.0 mm 0.00 in0.0 mm
07:40 AM 67.8°F19.9°C 58.0°F14.4°C 71% Calm Calm -- 30.14 in1020.7 mb - 0.00 in0.0 mm 0.00 in0.0 mm
07:50 AM 68.5°F20.3°C 59.1°F15.1°C 72% Calm Calm -- 30.14 in1020.7 mb - 0.00 in0.0 mm 0.00 in0.0 mm
08:00 AM 69.3°F20.7°C 59.5°F15.3°C 71% Calm Calm -- 30.14 in1020.7 mb - 0.00 in0.0 mm 0.00 in0.0 mm
08:10 AM 70.1°F21.2°C 60.7°F15.9°C 72% 3.7 mph S6.0 kmh S 6.0 mph9.7 kmh 30.14 in1020.7 mb - 0.00 in0.0 mm 0.00 in0.0 mm
08:20 AM 70.4°F21.3°C 62.9°F17.2°C 77% 3.1 mph S5.0 kmh S 5.0 mph8.0 kmh 30.15 in1021.0 mb - 0.00 in0.0 mm 0.00 in0.0 mm
08:30 AM 70.5°F21.4°C 63.3°F17.4°C 78% 0.3 mph S0.5 kmh S 5.0 mph8.0 kmh 30.15 in1021.0 mb - 0.00 in0.0 mm 0.00 in0.0 mm
08:40 AM 70.5°F21.4°C 63.7°F17.6°C 79% 4.4 mph S7.1 kmh S 6.0 mph9.7 kmh 30.15 in1021.0 mb - 0.00 in0.0 mm 0.00 in0.0 mm
08:50 AM 70.5°F21.4°C 63.6°F17.6°C 79% 3.1 mph S5.0 kmh S 7.0 mph11.3 kmh 30.15 in1021.0 mb - 0.00 in0.0 mm 0.00 in0.0 mm
09:00 AM 70.7°F21.5°C 63.9°F17.7°C 79% 3.9 mph S6.3 kmh S 7.0 mph11.3 kmh 30.15 in1021.0 mb - 0.00 in0.0 mm 0.00 in0.0 mm
09:10 AM 70.7°F21.5°C 63.5°F17.5°C 78% 5.9 mph S9.5 kmh S 7.0 mph11.3 kmh 30.15 in1021.0 mb - 0.00 in0.0 mm 0.00 in0.0 mm
09:20 AM 71.1°F21.7°C 63.9°F17.7°C 78% 5.1 mph S8.2 kmh S 6.0 mph9.7 kmh 30.16 in1021.3 mb - 0.00 in0.0 mm 0.00 in0.0 mm
09:30 AM 71.5°F21.9°C 63.9°F17.7°C 77% 3.9 mph S6.3 kmh S 7.0 mph11.3 kmh 30.16 in1021.3 mb - 0.00 in0.0 mm 0.00 in0.0 mm
09:40 AM 71.1°F21.7°C 63.9°F17.7°C 78% 4.3 mph S6.9 kmh S 7.0 mph11.3 kmh 30.15 in1021.0 mb - 0.00 in0.0 mm 0.00 in0.0 mm
09:50 AM 71.2°F21.8°C 64.0°F17.8°C 78% 3.9 mph S6.3 kmh S 6.0 mph9.7 kmh 30.16 in1021.3 mb - 0.00 in0.0 mm 0.00 in0.0 mm
10:00 AM 70.9°F21.6°C 63.7°F17.6°C 78% 2.8 mph S4.5 kmh S 6.0 mph9.7 kmh 30.16 in1021.3 mb - 0.00 in0.0 mm 0.00 in0.0 mm
10:10 AM 70.9°F21.6°C 63.7°F17.6°C 78% 1.5 mph S2.4 kmh S 5.0 mph8.0 kmh 30.16 in1021.3 mb - 0.00 in0.0 mm 0.00 in0.0 mm
10:20 AM 71.1°F21.7°C 63.1°F17.3°C 76% 1.4 mph S2.3 kmh S 5.0 mph8.0 kmh 30.16 in1021.3 mb - 0.00 in0.0 mm 0.00 in0.0 mm
10:30 AM 70.6°F21.4°C 63.4°F17.4°C 78% 1.9 mph S3.1 kmh S 4.0 mph6.4 kmh 30.16 in1021.3 mb - 0.00 in0.0 mm 0.00 in0.0 mm
10:40 AM 70.8°F21.6°C 63.2°F17.3°C 77% 2.0 mph S3.2 kmh S 2.0 mph3.2 kmh 30.16 in1021.3 mb - 0.00 in0.0 mm 0.00 in0.0 mm
10:50 AM 70.9°F21.6°C 63.7°F17.6°C 78% 1.5 mph S2.4 kmh S 3.0 mph4.8 kmh 30.17 in1021.7 mb - 0.00 in0.0 mm 0.00 in0.0 mm
11:00 AM 71.8°F22.1°C 64.2°F17.9°C 77% 3.4 mph S5.5 kmh S 6.0 mph9.7 kmh 30.16 in1021.3 mb - 0.00 in0.0 mm 0.00 in0.0 mm
11:10 AM 72.0°F22.2°C 64.1°F17.8°C 76% 3.5 mph S5.6 kmh S 6.0 mph9.7 kmh 30.16 in1021.3 mb - 0.00 in0.0 mm 0.00 in0.0 mm
11:20 AM 72.1°F22.3°C 64.1°F17.8°C 76% 3.0 mph S4.8 kmh S 5.0 mph8.0 kmh 30.16 in1021.3 mb - 0.00 in0.0 mm 0.00 in0.0 mm
11:30 AM 71.6°F22.0°C 64.0°F17.8°C 77% 2.6 mph S4.2 kmh S 4.0 mph6.4 kmh 30.17 in1021.7 mb - 0.00 in0.0 mm 0.00 in0.0 mm
11:40 AM 71.2°F21.8°C 64.0°F17.8°C 78% 0.9 mph S1.4 kmh S 2.0 mph3.2 kmh 30.17 in1021.7 mb - 0.00 in0.0 mm 0.00 in0.0 mm
11:50 AM 71.2°F21.8°C 64.4°F18.0°C 79% 1.3 mph S2.1 kmh S 3.0 mph4.8 kmh 30.17 in1021.7 mb - 0.00 in0.0 mm 0.00 in0.0 mm
12:00 PM 71.2°F21.8°C 64.0°F17.8°C 78% 1.2 mph S1.9 kmh S 4.0 mph6.4 kmh 30.17 in1021.7 mb - 0.00 in0.0 mm 0.00 in0.0 mm
12:10 PM 72.4°F22.4°C 64.5°F18.1°C 76% 2.8 mph S4.5 kmh S 7.0 mph11.3 kmh 30.16 in1021.3 mb - 0.00 in0.0 mm 0.00 in0.0 mm
12:20 PM 71.9°F22.2°C 64.3°F17.9°C 77% 2.8 mph S4.5 kmh S 5.0 mph8.0 kmh 30.16 in1021.3 mb - 0.00 in0.0 mm 0.00 in0.0 mm
12:30 PM 72.6°F22.6°C 64.6°F18.1°C 76% 4.0 mph S6.4 kmh S 7.0 mph11.3 kmh 30.16 in1021.3 mb - 0.00 in0.0 mm 0.00 in0.0 mm
12:40 PM 71.6°F22.0°C 64.0°F17.8°C 77% 3.3 mph S5.3 kmh S 5.0 mph8.0 kmh 30.16 in1021.3 mb - 0.00 in0.0 mm 0.00 in0.0 mm
12:50 PM 71.6°F22.0°C 64.4°F18.0°C 78% 2.9 mph S4.7 kmh S 5.0 mph8.0 kmh 30.16 in1021.3 mb - 0.00 in0.0 mm 0.00 in0.0 mm
01:00 PM 71.8°F22.1°C 64.6°F18.1°C 78% 6.3 mph S10.1 kmh S 9.0 mph14.5 kmh 30.16 in1021.3 mb - 0.00 in0.0 mm 0.00 in0.0 mm
01:10 PM 71.5°F21.9°C 64.3°F17.9°C 78% 6.0 mph S9.7 kmh S 10.0 mph16.1 kmh 30.16 in1021.3 mb - 0.00 in0.0 mm 0.00 in0.0 mm
01:20 PM 71.9°F22.2°C 64.7°F18.2°C 78% 5.6 mph S9.0 kmh S 7.0 mph11.3 kmh 30.16 in1021.3 mb - 0.00 in0.0 mm 0.00 in0.0 mm
01:30 PM 71.6°F22.0°C 64.4°F18.0°C 78% 4.8 mph S7.7 kmh S 7.0 mph11.3 kmh 30.15 in1021.0 mb - 0.00 in0.0 mm 0.00 in0.0 mm
01:40 PM 71.6°F22.0°C 64.7°F18.2°C 79% 5.1 mph S8.2 kmh S 9.0 mph14.5 kmh 30.15 in1021.0 mb - 0.00 in0.0 mm 0.00 in0.0 mm
01:50 PM 71.5°F21.9°C 64.3°F17.9°C 78% 5.9 mph S9.5 kmh S 7.0 mph11.3 kmh 30.15 in1021.0 mb - 0.00 in0.0 mm 0.00 in0.0 mm
02:00 PM 72.0°F22.2°C 65.1°F18.4°C 79% 4.7 mph S7.6 kmh S 7.0 mph11.3 kmh 30.14 in1020.7 mb - 0.00 in0.0 mm 0.00 in0.0 mm
02:10 PM 73.1°F22.8°C 65.1°F18.4°C 76% 5.5 mph S8.9 kmh S 7.0 mph11.3 kmh 30.14 in1020.7 mb - 0.00 in0.0 mm 0.00 in0.0 mm
02:20 PM 72.4°F22.4°C 64.4°F18.0°C 76% 4.2 mph S6.8 kmh S 6.0 mph9.7 kmh 30.14 in1020.7 mb - 0.00 in0.0 mm 0.00 in0.0 mm
02:30 PM 71.9°F22.2°C 64.7°F18.2°C 78% 4.6 mph S7.4 kmh S 7.0 mph11.3 kmh 30.14 in1020.7 mb - 0.00 in0.0 mm 0.00 in0.0 mm
02:40 PM 71.8°F22.1°C 64.9°F18.3°C 79% 5.2 mph S8.4 kmh S 7.0 mph11.3 kmh 30.14 in1020.7 mb - 0.00 in0.0 mm 0.00 in0.0 mm
02:50 PM 71.3°F21.8°C 64.1°F17.8°C 78% 3.5 mph S5.6 kmh S 6.0 mph9.7 kmh 30.14 in1020.7 mb - 0.00 in0.0 mm 0.00 in0.0 mm
03:00 PM 71.3°F21.8°C 64.4°F18.0°C 79% 5.9 mph S9.5 kmh S 7.0 mph11.3 kmh 30.14 in1020.7 mb - 0.00 in0.0 mm 0.00 in0.0 mm
03:10 PM 71.5°F21.9°C 63.9°F17.7°C 77% 5.7 mph S9.2 kmh S 7.0 mph11.3 kmh 30.14 in1020.7 mb - 0.00 in0.0 mm 0.00 in0.0 mm
03:20 PM 70.8°F21.6°C 63.6°F17.6°C 78% 4.8 mph S7.7 kmh S 6.0 mph9.7 kmh 30.14 in1020.7 mb - 0.00 in0.0 mm 0.00 in0.0 mm
03:30 PM 71.0°F21.7°C 64.2°F17.9°C 79% 2.8 mph S4.5 kmh S 4.0 mph6.4 kmh 30.14 in1020.7 mb - 0.00 in0.0 mm 0.00 in0.0 mm
03:40 PM 71.4°F21.9°C 64.2°F17.9°C 78% 4.5 mph S7.2 kmh S 9.0 mph14.5 kmh 30.13 in1020.3 mb - 0.00 in0.0 mm 0.00 in0.0 mm
03:50 PM 71.8°F22.1°C 64.6°F18.1°C 78% 5.0 mph S8.0 kmh S 10.0 mph16.1 kmh 30.13 in1020.3 mb - 0.00 in0.0 mm 0.00 in0.0 mm
04:00 PM 71.3°F21.8°C 64.1°F17.8°C 78% 5.0 mph S8.0 kmh S 9.0 mph14.5 kmh 30.13 in1020.3 mb - 0.00 in0.0 mm 0.00 in0.0 mm
04:10 PM 70.8°F21.6°C 63.6°F17.6°C 78% 4.3 mph S6.9 kmh S 8.0 mph12.9 kmh 30.12 in1020.0 mb - 0.00 in0.0 mm 0.00 in0.0 mm
04:20 PM 70.6°F21.4°C 63.8°F17.7°C 79% 5.9 mph S9.5 kmh S 8.0 mph12.9 kmh 30.12 in1020.0 mb - 0.00 in0.0 mm 0.00 in0.0 mm
04:30 PM 70.6°F21.4°C 63.8°F17.7°C 79% 3.7 mph S6.0 kmh S 5.0 mph8.0 kmh 30.12 in1020.0 mb - 0.00 in0.0 mm 0.00 in0.0 mm
04:40 PM 70.5°F21.4°C 64.0°F17.8°C 80% 5.6 mph S9.0 kmh S 9.0 mph14.5 kmh 30.12 in1020.0 mb - 0.00 in0.0 mm 0.00 in0.0 mm
04:50 PM 70.7°F21.5°C 64.2°F17.9°C 80% 4.7 mph S7.6 kmh S 9.0 mph14.5 kmh 30.11 in1019.6 mb - 0.00 in0.0 mm 0.00 in0.0 mm
05:00 PM 70.8°F21.6°C 64.3°F17.9°C 80% 5.1 mph S8.2 kmh S 8.0 mph12.9 kmh 30.11 in1019.6 mb - 0.00 in0.0 mm 0.00 in0.0 mm
05:10 PM 70.7°F21.5°C 64.2°F17.9°C 80% 5.8 mph S9.3 kmh S 9.0 mph14.5 kmh 30.11 in1019.6 mb - 0.00 in0.0 mm 0.00 in0.0 mm
05:20 PM 70.2°F21.2°C 63.7°F17.6°C 80% 4.5 mph S7.2 kmh S 9.0 mph14.5 kmh 30.11 in1019.6 mb - 0.00 in0.0 mm 0.00 in0.0 mm
05:30 PM 70.3°F21.3°C 64.2°F17.9°C 81% 4.9 mph S7.9 kmh S 7.0 mph11.3 kmh 30.11 in1019.6 mb - 0.00 in0.0 mm 0.00 in0.0 mm
05:40 PM 70.4°F21.3°C 63.9°F17.7°C 80% 6.3 mph S10.1 kmh S 9.0 mph14.5 kmh 30.11 in1019.6 mb - 0.00 in0.0 mm 0.00 in0.0 mm
05:50 PM 70.8°F21.6°C 64.3°F17.9°C 80% 5.0 mph S8.0 kmh S 6.0 mph9.7 kmh 30.11 in1019.6 mb - 0.00 in0.0 mm 0.00 in0.0 mm
06:00 PM 71.4°F21.9°C 64.5°F18.1°C 79% 5.0 mph S8.0 kmh S 10.0 mph16.1 kmh 30.11 in1019.6 mb - 0.00 in0.0 mm 0.00 in0.0 mm
06:10 PM 71.4°F21.9°C 64.2°F17.9°C 78% 4.8 mph S7.7 kmh S 7.0 mph11.3 kmh 30.11 in1019.6 mb - 0.00 in0.0 mm 0.00 in0.0 mm
06:20 PM 71.1°F21.7°C 64.3°F17.9°C 79% 6.3 mph S10.1 kmh S 8.0 mph12.9 kmh 30.11 in1019.6 mb - 0.00 in0.0 mm 0.00 in0.0 mm
06:30 PM 70.9°F21.6°C 64.1°F17.8°C 79% 4.5 mph S7.2 kmh S 6.0 mph9.7 kmh 30.11 in1019.6 mb - 0.00 in0.0 mm 0.00 in0.0 mm
06:40 PM 70.8°F21.6°C 63.6°F17.6°C 78% 4.6 mph S7.4 kmh S 5.0 mph8.0 kmh 30.11 in1019.6 mb - 0.00 in0.0 mm 0.00 in0.0 mm
06:50 PM 70.7°F21.5°C 63.9°F17.7°C 79% 4.9 mph S7.9 kmh S 6.0 mph9.7 kmh 30.11 in1019.6 mb - 0.00 in0.0 mm 0.00 in0.0 mm
07:00 PM 70.3°F21.3°C 63.1°F17.3°C 78% 5.5 mph S8.9 kmh S 7.0 mph11.3 kmh 30.11 in1019.6 mb - 0.00 in0.0 mm 0.00 in0.0 mm
07:10 PM 69.9°F21.1°C 63.1°F17.3°C 79% 3.4 mph S5.5 kmh S 4.0 mph6.4 kmh 30.11 in1019.6 mb - 0.00 in0.0 mm 0.00 in0.0 mm
07:20 PM 69.6°F20.9°C 63.2°F17.3°C 80% 4.2 mph S6.8 kmh S 6.0 mph9.7 kmh 30.12 in1020.0 mb - 0.00 in0.0 mm 0.00 in0.0 mm
07:30 PM 69.4°F20.8°C 62.9°F17.2°C 80% 0.8 mph S1.3 kmh S 4.0 mph6.4 kmh 30.12 in1020.0 mb - 0.00 in0.0 mm 0.00 in0.0 mm
07:40 PM 69.3°F20.7°C 62.8°F17.1°C 80% 0.5 mph S0.8 kmh S 3.0 mph4.8 kmh 30.12 in1020.0 mb - 0.00 in0.0 mm 0.00 in0.0 mm
07:50 PM 69.0°F20.6°C 62.6°F17.0°C 80% 1.9 mph S3.1 kmh S 4.0 mph6.4 kmh 30.12 in1020.0 mb - 0.00 in0.0 mm 0.00 in0.0 mm
08:00 PM 68.7°F20.4°C 62.6°F17.0°C 81% Calm Calm -- 30.12 in1020.0 mb - 0.00 in0.0 mm 0.00 in0.0 mm
08:10 PM 67.9°F19.9°C 61.9°F16.6°C 81% 2.8 mph S4.5 kmh S 3.0 mph4.8 kmh 30.12 in1020.0 mb - 0.00 in0.0 mm 0.00 in0.0 mm
08:20 PM 67.4°F19.7°C 60.3°F15.7°C 78% 2.1 mph S3.4 kmh S 6.0 mph9.7 kmh 30.12 in1020.0 mb - 0.00 in0.0 mm 0.00 in0.0 mm
08:30 PM 67.7°F19.8°C 61.7°F16.5°C 81% 1.2 mph S1.9 kmh S 5.0 mph8.0 kmh 30.12 in1020.0 mb - 0.00 in0.0 mm 0.00 in0.0 mm
08:40 PM 67.6°F19.8°C 62.3°F16.8°C 83% Calm Calm -- 30.12 in1020.0 mb - 0.00 in0.0 mm 0.00 in0.0 mm
08:50 PM 67.4°F19.7°C 62.4°F16.9°C 84% Calm Calm -- 30.13 in1020.3 mb - 0.00 in0.0 mm 0.00 in0.0 mm
09:00 PM 67.2°F19.6°C 62.5°F16.9°C 85% 0.4 mph S0.6 kmh S 2.0 mph3.2 kmh 30.13 in1020.3 mb - 0.00 in0.0 mm 0.00 in0.0 mm
09:10 PM 67.1°F19.5°C 62.8°F17.1°C 86% Calm Calm -- 30.13 in1020.3 mb - 0.00 in0.0 mm 0.00 in0.0 mm
09:20 PM 67.1°F19.5°C 62.8°F17.1°C 86% Calm Calm -- 30.13 in1020.3 mb - 0.00 in0.0 mm 0.00 in0.0 mm
09:30 PM 67.0°F19.4°C 62.7°F17.1°C 86% Calm Calm -- 30.13 in1020.3 mb - 0.00 in0.0 mm 0.00 in0.0 mm
09:40 PM 66.7°F19.3°C 62.4°F16.9°C 86% Calm Calm -- 30.13 in1020.3 mb - 0.00 in0.0 mm 0.00 in0.0 mm
09:50 PM 66.5°F19.2°C 62.2°F16.8°C 86% 1.2 mph S1.9 kmh S 3.0 mph4.8 kmh 30.13 in1020.3 mb - 0.00 in0.0 mm 0.00 in0.0 mm
10:00 PM 66.3°F19.1°C 62.0°F16.7°C 86% Calm Calm -- 30.13 in1020.3 mb - 0.00 in0.0 mm 0.00 in0.0 mm
10:10 PM 66.2°F19.0°C 62.2°F16.8°C 87% 0.1 mph S0.2 kmh S 1.0 mph1.6 kmh 30.13 in1020.3 mb - 0.00 in0.0 mm 0.00 in0.0 mm
10:20 PM 66.1°F18.9°C 61.8°F16.6°C 86% Calm Calm -- 30.13 in1020.3 mb - 0.00 in0.0 mm 0.00 in0.0 mm
10:30 PM 66.1°F18.9°C 62.1°F16.7°C 87% 0.3 mph S0.5 kmh S 2.0 mph3.2 kmh 30.13 in1020.3 mb - 0.00 in0.0 mm 0.00 in0.0 mm
10:40 PM 66.2°F19.0°C 61.9°F16.6°C 86% 2.3 mph S3.7 kmh S 10.0 mph16.1 kmh 30.14 in1020.7 mb - 0.00 in0.0 mm 0.00 in0.0 mm
10:50 PM 65.7°F18.7°C 59.4°F15.2°C 80% 3.6 mph SSE5.8 kmh SSE 6.0 mph9.7 kmh 30.13 in1020.3 mb - 0.00 in0.0 mm 0.00 in0.0 mm
11:00 PM 66.0°F18.9°C 59.6°F15.3°C 80% 4.2 mph SSE6.8 kmh SSE 6.0 mph9.7 kmh 30.13 in1020.3 mb - 0.00 in0.0 mm 0.00 in0.0 mm
11:10 PM 66.2°F19.0°C 59.1°F15.1°C 78% 4.4 mph SE7.1 kmh SE 6.0 mph9.7 kmh 30.13 in1020.3 mb - 0.00 in0.0 mm 0.00 in0.0 mm
11:20 PM 66.1°F18.9°C 59.0°F15.0°C 78% 2.6 mph SE4.2 kmh SE 5.0 mph8.0 kmh 30.13 in1020.3 mb - 0.00 in0.0 mm 0.00 in0.0 mm
11:30 PM 65.9°F18.8°C 57.7°F14.3°C 75% 1.0 mph SE1.6 kmh SE 3.0 mph4.8 kmh 30.13 in1020.3 mb - 0.00 in0.0 mm 0.00 in0.0 mm
11:40 PM 66.1°F18.9°C 59.0°F15.0°C 78% 2.4 mph SE3.9 kmh SE 3.0 mph4.8 kmh 30.13 in1020.3 mb - 0.00 in0.0 mm 0.00 in0.0 mm
11:50 PM 65.6°F18.7°C 57.5°F14.2°C 75% 3.3 mph SE5.3 kmh SE 5.0 mph8.0 kmh 30.13 in1020.3 mb - 0.00 in0.0 mm 0.00 in0.0 mm